Versailles, OH

9:29 AM EDT on July 24, 2017 (GMT -0400)
Darke County

Weather History for KVES - March, 2014

Change the Weather History Date:

Thursday, March 27, 2014

  Actual Average (KDAY) Record (KDAY)
Temperature  
Mean Temperature 42 °F -  
Max Temperature 53 °F 52 °F 83 °F (1910)
Min Temperature 30 °F 33 °F 11 °F (1955)
Degree Days  
Heating Degree Days 24    
Moisture  
Dew Point 25 °F    
Average Humidity 58    
Maximum Humidity 76    
Minimum Humidity 38    
Precipitation  
Precipitation 0.05 in - - ()
Sea Level Pressure  
Sea Level Pressure 29.97 in    
Wind  
Wind Speed 11 mph (South)    
Max Wind Speed 16 mph    
Max Gust Speed 25 mph    
Visibility 10 miles    
Events Rain , Thunderstorm    
Averages and records for this station are not official NWS values.
T = Trace of Precipitation, MM = Missing Value Source: NWS Daily Summary

Daily Weather History Graph

Daily Weather History Graph

Search for Another Location

Airport or City:

Trip Planner

Search our weather history database for the weather conditions in past years. The results will help you decide how hot, cold, wet, or windy it might be!

Date:

Astronomy

Mar. 27, 2014 Rise Set
Actual Time 7:30 AM EDT 7:57 PM EDT
Civil Twilight 7:02 AM EDT 8:24 PM EDT
Nautical Twilight 6:30 AM EDT 8:56 PM EDT
Astronomical Twilight 5:58 AM EDT 9:29 PM EDT
Moon 5:21 AM EDT (3/27) 4:43 PM EDT (3/27)
Length of Visible Light 13h 21m
Length of Day
12h 27m
Waning Crescent, 13% of the Moon is Illuminated
Mar 27
Waning Crescent
Mar 30
New
Apr 7
First Quarter
Apr 15
Full
Apr 22
Last Quarter

Hourly Weather History & Observations

Time (EDT) Temp. Windchill Dew Point Humidity Pressure Visibility Wind Dir Wind Speed Gust Speed Precip Events Conditions
12:15 AM 30.2 °F 23.4 °F 15.8 °F 55% 30.19 in 10.0 mi South 6.9 mph - N/A   Clear
12:35 AM 30.2 °F 23.4 °F 15.8 °F 55% 30.19 in 10.0 mi South 6.9 mph - N/A   Clear
12:55 AM 32.0 °F 24.8 °F 15.8 °F 51% 30.18 in 10.0 mi South 8.1 mph - N/A   Scattered Clouds
1:15 AM 30.2 °F 21.9 °F 15.8 °F 55% 30.17 in 10.0 mi South 9.2 mph - N/A   Scattered Clouds
1:35 AM 30.2 °F 21.9 °F 15.8 °F 55% 30.17 in 10.0 mi South 9.2 mph - N/A   Scattered Clouds
1:55 AM 30.2 °F 21.3 °F 17.6 °F 60% 30.16 in 10.0 mi South 10.4 mph - N/A   Clear
2:15 AM 32.0 °F 23.6 °F 19.4 °F 60% 30.16 in 10.0 mi South 10.4 mph - N/A   Clear
2:35 AM 30.2 °F 21.3 °F 19.4 °F 64% 30.15 in 10.0 mi South 10.4 mph 17.3 mph N/A   Clear
2:55 AM 30.2 °F 20.8 °F 19.4 °F 64% 30.15 in 10.0 mi South 11.5 mph - N/A   Clear
3:15 AM 30.2 °F 21.3 °F 19.4 °F 64% 30.14 in 10.0 mi South 10.4 mph - N/A   Clear
3:35 AM 30.2 °F 22.6 °F 19.4 °F 64% 30.14 in 10.0 mi South 8.1 mph - N/A   Clear
3:55 AM 30.2 °F 21.3 °F 19.4 °F 64% 30.13 in 10.0 mi South 10.4 mph - N/A   Clear
4:15 AM 30.2 °F 21.3 °F 19.4 °F 64% 30.12 in 10.0 mi South 10.4 mph 16.1 mph N/A   Scattered Clouds
4:35 AM 30.2 °F 21.9 °F 19.4 °F 64% 30.12 in 10.0 mi South 9.2 mph 16.1 mph N/A   Mostly Cloudy
4:55 AM 32.0 °F 23.6 °F 19.4 °F 60% 30.12 in 10.0 mi South 10.4 mph - N/A   Overcast
5:15 AM 32.0 °F 24.2 °F 19.4 °F 60% 30.12 in 10.0 mi South 9.2 mph - N/A   Overcast
5:35 AM 32.0 °F 24.2 °F 19.4 °F 60% 30.11 in 10.0 mi South 9.2 mph - N/A   Overcast
5:55 AM 32.0 °F 23.6 °F 19.4 °F 60% 30.11 in 10.0 mi South 10.4 mph - N/A   Overcast
6:15 AM 32.0 °F 23.6 °F 19.4 °F 60% 30.11 in 10.0 mi South 10.4 mph - N/A   Overcast
6:35 AM 32.0 °F 23.0 °F 19.4 °F 60% 30.09 in 10.0 mi SSE 11.5 mph 16.1 mph N/A   Mostly Cloudy
6:55 AM 32.0 °F 23.0 °F 19.4 °F 60% 30.10 in 10.0 mi South 11.5 mph 17.3 mph N/A   Mostly Cloudy
7:15 AM 32.0 °F 23.0 °F 19.4 °F 60% 30.11 in 10.0 mi South 11.5 mph 17.3 mph N/A   Mostly Cloudy
7:35 AM 32.0 °F 23.0 °F 19.4 °F 60% 30.11 in 10.0 mi South 11.5 mph 17.3 mph N/A   Overcast
7:55 AM 32.0 °F 22.1 °F 19.4 °F 60% 30.09 in 10.0 mi SSE 13.8 mph 18.4 mph N/A   Overcast
8:15 AM 32.0 °F 22.5 °F 19.4 °F 60% 30.10 in 10.0 mi South 12.7 mph 18.4 mph N/A   Overcast
8:35 AM 32.0 °F 23.6 °F 19.4 °F 60% 30.09 in 10.0 mi South 10.4 mph - N/A   Overcast
8:55 AM 33.8 °F 24.8 °F 19.4 °F 56% 30.08 in 10.0 mi South 12.7 mph 20.7 mph N/A   Overcast
9:15 AM 33.8 °F 24.8 °F 21.2 °F 60% 30.05 in 10.0 mi SSE 12.7 mph - N/A   Mostly Cloudy
9:35 AM 33.8 °F 24.3 °F 21.2 °F 60% 30.06 in 10.0 mi South 13.8 mph 19.6 mph N/A   Overcast
9:55 AM 35.6 °F 27.1 °F 19.4 °F 52% 30.05 in 10.0 mi South 12.7 mph 24.2 mph N/A   Overcast
10:15 AM 35.6 °F 26.6 °F 23.0 °F 60% 30.05 in 10.0 mi South 13.8 mph 20.7 mph N/A   Mostly Cloudy
10:35 AM 35.6 °F 27.5 °F 23.0 °F 60% 30.04 in 10.0 mi South 11.5 mph 19.6 mph N/A   Scattered Clouds
10:55 AM 37.4 °F 29.8 °F 21.2 °F 52% 30.03 in 10.0 mi South 11.5 mph 19.6 mph N/A   Mostly Cloudy
11:15 AM 37.4 °F 29.8 °F 23.0 °F 56% 30.02 in 10.0 mi South 11.5 mph 21.9 mph N/A   Overcast
11:35 AM 37.4 °F 29.3 °F 23.0 °F 56% 30.02 in 10.0 mi South 12.7 mph 21.9 mph N/A   Overcast
11:55 AM 37.4 °F 29.8 °F 24.8 °F 60% 30.02 in 10.0 mi South 11.5 mph 24.2 mph N/A   Light Drizzle
12:15 PM 37.4 °F 29.3 °F 24.8 °F 60% 30.01 in 10.0 mi South 12.7 mph 18.4 mph N/A Rain Light Rain
12:35 PM 39.2 °F 32.5 °F 24.8 °F 56% 30.00 in 10.0 mi South 10.4 mph 21.9 mph N/A   Overcast
12:55 PM 41.0 °F 33.5 °F 23.0 °F 49% 29.98 in 10.0 mi South 13.8 mph 19.6 mph N/A   Overcast
1:15 PM 41.0 °F 33.5 °F 23.0 °F 49% 29.97 in 10.0 mi South 13.8 mph 21.9 mph N/A   Overcast
1:35 PM 41.0 °F 33.5 °F 24.8 °F 53% 29.96 in 10.0 mi South 13.8 mph 23.0 mph N/A   Overcast
1:55 PM 41.0 °F 33.5 °F 24.8 °F 53% 29.96 in 10.0 mi South 13.8 mph 24.2 mph N/A   Overcast
2:15 PM 41.0 °F 33.9 °F 24.8 °F 53% 29.95 in 10.0 mi South 12.7 mph 18.4 mph N/A   Overcast
2:35 PM 41.0 °F 34.7 °F 26.6 °F 57% 29.94 in 10.0 mi South 10.4 mph 24.2 mph N/A Rain Light Rain
2:55 PM 41.0 °F 33.9 °F 28.4 °F 61% 29.92 in 10.0 mi South 12.7 mph 18.4 mph N/A   Overcast
3:15 PM 42.8 °F 35.1 °F 28.4 °F 57% 29.90 in 10.0 mi South 16.1 mph 19.6 mph N/A   Overcast
3:35 PM 42.8 °F 35.8 °F 26.6 °F 53% 29.89 in 10.0 mi South 13.8 mph 20.7 mph N/A   Overcast
3:55 PM 44.6 °F 38.4 °F 28.4 °F 53% 29.88 in 10.0 mi South 12.7 mph 21.9 mph N/A   Overcast
4:15 PM 44.6 °F 37.8 °F 28.4 °F 53% 29.87 in 10.0 mi South 15.0 mph 23.0 mph N/A   Overcast
4:35 PM 46.4 °F 40.1 °F 28.4 °F 50% 29.86 in 10.0 mi South 15.0 mph 25.3 mph N/A   Overcast
4:55 PM 46.4 °F 41.1 °F 28.4 °F 50% 29.85 in 10.0 mi South 11.5 mph 20.7 mph N/A   Overcast
5:15 PM 48.2 °F - 28.4 °F 46% 29.85 in 10.0 mi South 13.8 mph 19.6 mph N/A   Overcast
5:35 PM 50.0 °F - 28.4 °F 43% 29.83 in 10.0 mi South 12.7 mph 17.3 mph N/A   Overcast
5:55 PM 51.8 °F - 28.4 °F 41% 29.82 in 10.0 mi South 16.1 mph 20.7 mph N/A   Mostly Cloudy
6:15 PM 51.8 °F - 28.4 °F 41% 29.80 in 10.0 mi South 12.7 mph 24.2 mph N/A   Mostly Cloudy
6:35 PM 53.6 °F - 28.4 °F 38% 29.78 in 10.0 mi South 16.1 mph 25.3 mph N/A   Scattered Clouds
6:55 PM 53.6 °F - 28.4 °F 38% 29.78 in 10.0 mi South 16.1 mph 25.3 mph N/A   Mostly Cloudy
7:15 PM 51.8 °F - 30.2 °F 44% 29.78 in 10.0 mi South 11.5 mph 23.0 mph N/A Rain Light Rain
7:35 PM 50.0 °F - 32.0 °F 50% 29.76 in 10.0 mi South 11.5 mph - N/A Rain Light Rain
7:55 PM 50.0 °F - 32.0 °F 50% 29.75 in 10.0 mi South 12.7 mph 19.6 mph N/A   Unknown
8:15 PM 51.8 °F - 32.0 °F 47% 29.74 in 10.0 mi South 11.5 mph 23.0 mph N/A   Unknown
8:35 PM 50.0 °F - 32.0 °F 50% 29.76 in 10.0 mi SSW 11.5 mph - N/A Rain Light Rain
8:55 PM 46.4 °F 41.1 °F 35.6 °F 66% 29.78 in 10.0 mi South 11.5 mph - 0.04 in Rain , Thunderstorm Light Thunderstorms and Rain
9:15 PM 46.4 °F 40.1 °F 35.6 °F 66% 29.79 in 10.0 mi SSW 15.0 mph 19.6 mph N/A Rain , Thunderstorm Light Thunderstorms and Rain
9:35 PM 46.4 °F 39.8 °F 35.6 °F 66% 29.79 in 10.0 mi SSW 16.1 mph 21.9 mph N/A Rain Light Rain
9:55 PM 44.6 °F 38.4 °F 37.4 °F 76% 29.78 in 10.0 mi SSW 12.7 mph 17.3 mph 0.01 in Rain Light Rain
10:15 PM 44.6 °F 38.8 °F 37.4 °F 76% 29.76 in 10.0 mi South 11.5 mph 16.1 mph N/A Rain Light Rain
10:35 PM 44.6 °F 40.2 °F 37.4 °F 76% 29.75 in 10.0 mi South 8.1 mph - N/A Rain Light Rain
10:55 PM 44.6 °F 38.8 °F 37.4 °F 76% 29.74 in 10.0 mi South 11.5 mph 16.1 mph N/A   Unknown
11:15 PM 44.6 °F 40.2 °F 35.6 °F 71% 29.75 in 10.0 mi South 8.1 mph - N/A   Unknown
11:35 PM 44.6 °F 39.2 °F 35.6 °F 71% 29.73 in 10.0 mi South 10.4 mph 18.4 mph N/A Rain Light Rain
11:55 PM 44.6 °F 38.8 °F 35.6 °F 71% 29.75 in 10.0 mi South 11.5 mph 16.1 mph N/A Rain Light Rain